createdAt,value
2022-09-11T00:01:01.050Z,24.35
2022-09-11T00:03:28.432Z,21.58
2022-09-11T00:05:55.119Z,23.75
2022-09-11T00:08:22.088Z,26.40
2022-09-11T00:10:49.285Z,19.55
2022-09-11T00:13:21.326Z,20.00
2022-09-11T00:15:51.949Z,22.83
2022-09-11T00:18:24.024Z,27.13
2022-09-11T00:20:54.026Z,22.88
2022-09-11T00:23:22.951Z,23.23
2022-09-11T00:25:50.261Z,23.83
2022-09-11T00:28:19.795Z,24.20
2022-09-11T00:30:48.575Z,23.92
2022-09-11T00:33:16.207Z,26.73
2022-09-11T00:35:42.851Z,25.05
2022-09-11T00:38:13.108Z,27.40
2022-09-11T00:40:46.868Z,24.45
2022-09-11T00:43:15.371Z,21.00
2022-09-11T00:45:42.326Z,25.08
2022-09-11T00:48:10.506Z,19.08
2022-09-11T00:50:37.168Z,23.58
2022-09-11T00:53:08.146Z,23.85
2022-09-11T00:55:37.873Z,24.40
2022-09-11T00:58:14.716Z,27.42
2022-09-11T01:00:44.539Z,26.95
2022-09-11T01:03:11.552Z,29.13
2022-09-11T01:05:41.282Z,28.25
2022-09-11T01:08:08.549Z,28.05
2022-09-11T01:11:03.458Z,22.10
2022-09-11T01:13:41.849Z,28.30
2022-09-11T01:16:17.155Z,27.05
2022-09-11T01:19:06.922Z,29.13
2022-09-11T01:21:45.439Z,28.77
2022-09-11T01:24:49.514Z,28.55
2022-09-11T01:27:44.596Z,29.35
2022-09-11T01:30:13.825Z,28.15
2022-09-11T01:32:43.017Z,28.65
2022-09-11T01:35:12.740Z,28.83
2022-09-11T01:37:55.160Z,28.88
2022-09-11T01:40:28.251Z,29.60
2022-09-11T01:43:06.190Z,27.20
2022-09-11T01:45:40.581Z,31.50
2022-09-11T01:48:09.094Z,30.90
2022-09-11T01:50:39.844Z,30.52
2022-09-11T01:53:09.761Z,28.13
2022-09-11T01:55:51.225Z,30.45
2022-09-11T01:58:29.950Z,30.05
2022-09-11T02:01:20.914Z,30.83
2022-09-11T02:04:32.623Z,30.52
2022-09-11T02:07:07.639Z,28.88
2022-09-11T02:09:47.305Z,30.45
2022-09-11T02:12:17.764Z,26.42
2022-09-11T02:14:48.583Z,26.58
2022-09-11T02:17:46.398Z,27.65
2022-09-11T02:20:12.979Z,24.40
2022-09-11T02:22:40.458Z,26.70
2022-09-11T02:25:07.686Z,29.83
2022-09-11T02:27:34.969Z,25.67
2022-09-11T02:30:01.732Z,28.67
2022-09-11T02:32:30.459Z,26.38
2022-09-11T02:34:57.670Z,23.85
2022-09-11T02:37:35.288Z,33.10
2022-09-11T02:40:44.073Z,29.88
2022-09-11T02:43:42.606Z,28.65
2022-09-11T02:46:31.040Z,29.90
2022-09-11T02:49:07.906Z,28.83
2022-09-11T02:51:47.292Z,23.67
2022-09-11T02:54:24.818Z,31.13
2022-09-11T02:57:09.846Z,30.73
2022-09-11T02:59:47.696Z,40.38
2022-09-11T03:02:15.570Z,40.22
2022-09-11T03:04:42.109Z,36.38
2022-09-11T03:07:09.194Z,40.60
2022-09-11T03:09:35.897Z,40.22
2022-09-11T03:12:04.603Z,38.40
2022-09-11T03:14:31.262Z,44.85
2022-09-11T03:16:57.962Z,35.40
2022-09-11T03:19:24.515Z,34.35
2022-09-11T03:21:51.538Z,30.33
2022-09-11T03:24:18.286Z,32.10
2022-09-11T03:26:44.852Z,28.33
2022-09-11T03:29:11.681Z,26.67
2022-09-11T03:31:39.386Z,20.40
2022-09-11T03:34:06.472Z,28.40
2022-09-11T03:36:34.515Z,24.63
2022-09-11T03:39:02.036Z,34.60
2022-09-11T03:41:28.694Z,43.53
2022-09-11T03:43:55.243Z,39.05
2022-09-11T03:46:21.928Z,30.77
2022-09-11T03:48:48.470Z,32.35
2022-09-11T03:51:15.595Z,35.97
2022-09-11T03:53:43.179Z,25.73
2022-09-11T03:56:10.537Z,22.52
2022-09-11T03:58:37.164Z,40.72
2022-09-11T04:01:14.742Z,18.05
2022-09-11T04:03:42.333Z,33.17
2022-09-11T04:06:10.307Z,39.70
2022-09-11T04:08:39.192Z,18.23
2022-09-11T04:11:06.712Z,21.65
2022-09-11T04:13:35.778Z,34.08
2022-09-11T04:16:08.273Z,33.33
2022-09-11T04:18:37.191Z,34.78
2022-09-11T04:21:08.742Z,34.88
2022-09-11T04:23:35.629Z,31.40
2022-09-11T04:26:02.686Z,22.38
2022-09-11T04:28:31.589Z,28.83
2022-09-11T04:31:04.439Z,31.83
2022-09-11T04:33:31.113Z,29.45
2022-09-11T04:35:57.822Z,27.70
2022-09-11T04:38:24.740Z,29.02
2022-09-11T04:40:51.392Z,27.25
2022-09-11T04:43:18.006Z,31.95
2022-09-11T04:45:44.517Z,30.15
2022-09-11T04:48:11.050Z,22.73
2022-09-11T04:50:37.570Z,22.70
2022-09-11T04:53:04.210Z,24.90
2022-09-11T04:55:30.738Z,26.33
2022-09-11T04:57:57.229Z,30.90
2022-09-11T05:00:25.053Z,28.77
2022-09-11T05:02:54.605Z,24.55
2022-09-11T05:05:21.192Z,26.65
2022-09-11T05:07:50.611Z,26.50
2022-09-11T05:10:17.174Z,24.80
2022-09-11T05:12:43.661Z,27.83
2022-09-11T05:15:10.919Z,19.77
2022-09-11T05:17:38.086Z,24.45
2022-09-11T05:20:08.630Z,28.05
2022-09-11T05:22:37.784Z,30.17
2022-09-11T05:25:04.598Z,31.40
2022-09-11T05:27:31.096Z,31.23
2022-09-11T05:29:57.633Z,29.13
2022-09-11T05:32:24.219Z,31.77
2022-09-11T05:34:50.755Z,26.67
2022-09-11T05:37:17.317Z,29.60
2022-09-11T05:39:43.844Z,27.73
2022-09-11T05:42:10.386Z,27.73
2022-09-11T05:44:37.452Z,26.77
2022-09-11T05:47:04.822Z,28.23
2022-09-11T05:49:31.393Z,23.20
2022-09-11T05:51:58.012Z,27.20
2022-09-11T05:54:25.659Z,27.13
2022-09-11T05:56:52.647Z,27.25
2022-09-11T05:59:20.611Z,26.65
2022-09-11T06:01:47.732Z,30.17
2022-09-11T06:04:14.511Z,41.85
2022-09-11T06:06:41.270Z,29.65
2022-09-11T06:09:07.968Z,32.05
2022-09-11T06:11:34.680Z,25.80
2022-09-11T06:14:01.367Z,24.27
2022-09-11T06:16:29.326Z,23.08
2022-09-11T06:18:55.868Z,26.63
2022-09-11T06:21:24.317Z,25.10
2022-09-11T06:23:52.759Z,24.20
2022-09-11T06:26:22.582Z,23.35
2022-09-11T06:28:50.867Z,23.95
2022-09-11T06:31:23.249Z,20.13
2022-09-11T06:33:51.049Z,22.60
2022-09-11T06:36:31.657Z,22.40
2022-09-11T06:38:58.696Z,21.70
2022-09-11T06:41:26.802Z,22.75
2022-09-11T06:43:53.966Z,22.15
2022-09-11T06:46:23.035Z,22.00
2022-09-11T06:48:51.309Z,23.17
2022-09-11T06:51:19.838Z,25.75
2022-09-11T06:53:47.620Z,26.95
2022-09-11T06:56:16.560Z,23.52
2022-09-11T06:58:45.303Z,26.17
2022-09-11T07:01:14.444Z,24.52
2022-09-11T07:03:45.583Z,22.92
2022-09-11T07:06:17.126Z,24.70
2022-09-11T07:08:44.028Z,23.67
2022-09-11T07:11:13.869Z,21.00
2022-09-11T07:13:41.112Z,22.13
2022-09-11T07:16:09.832Z,20.98
2022-09-11T07:18:42.138Z,18.45
2022-09-11T07:21:11.699Z,21.00
2022-09-11T07:23:39.475Z,22.23
2022-09-11T07:26:08.873Z,20.02
2022-09-11T07:28:37.757Z,20.83
2022-09-11T07:31:06.217Z,17.55
2022-09-11T07:33:32.874Z,14.55
2022-09-11T07:35:59.452Z,15.38
2022-09-11T07:38:26.086Z,19.58
2022-09-11T07:40:56.624Z,14.80
2022-09-11T07:43:23.163Z,13.32
2022-09-11T07:45:53.258Z,12.27
2022-09-11T07:48:19.781Z,17.15
2022-09-11T07:51:04.489Z,15.55
2022-09-11T07:53:34.624Z,14.60
2022-09-11T07:56:03.536Z,12.02
2022-09-11T07:58:38.193Z,9.00
2022-09-11T08:01:10.625Z,11.18
2022-09-11T08:03:37.599Z,8.73
2022-09-11T08:06:08.094Z,9.05
2022-09-11T08:08:35.486Z,6.40
2022-09-11T08:11:10.934Z,6.50
2022-09-11T08:13:37.519Z,6.72
2022-09-11T08:16:04.585Z,7.80
2022-09-11T08:18:31.762Z,9.13
2022-09-11T08:21:12.884Z,6.65
2022-09-11T08:23:43.486Z,7.97
2022-09-11T08:26:16.540Z,8.00
2022-09-11T08:28:45.174Z,8.27
2022-09-11T08:31:13.281Z,7.82
2022-09-11T08:33:40.459Z,9.10
2022-09-11T08:36:09.824Z,8.43
2022-09-11T08:38:37.874Z,7.72
2022-09-11T08:41:32.368Z,8.52
2022-09-11T08:44:16.570Z,8.30
2022-09-11T08:46:48.094Z,7.65
2022-09-11T08:49:38.179Z,8.43
2022-09-11T08:52:08.818Z,8.27
2022-09-11T08:54:40.361Z,7.85
2022-09-11T08:57:13.542Z,7.20
2022-09-11T08:59:49.217Z,7.00
2022-09-11T09:02:54.808Z,5.85
2022-09-11T09:05:46.101Z,5.38
2022-09-11T09:08:37.255Z,5.65
2022-09-11T09:11:20.487Z,5.30
2022-09-11T09:14:25.722Z,4.72
2022-09-11T09:17:19.751Z,4.82
2022-09-11T09:19:52.651Z,5.10
2022-09-11T09:22:27.848Z,5.10
2022-09-11T09:27:46.783Z,5.28
2022-09-11T09:30:19.485Z,5.43
2022-09-11T09:32:53.168Z,5.00
2022-09-11T09:35:25.193Z,5.22
2022-09-11T09:37:51.703Z,5.25
2022-09-11T09:40:19.070Z,5.10
2022-09-11T09:42:54.833Z,5.20
2022-09-11T09:45:42.442Z,4.93
2022-09-11T09:48:11.254Z,5.40
2022-09-11T09:50:40.614Z,4.85
2022-09-11T09:53:36.361Z,4.90
2022-09-11T09:56:05.476Z,4.20
2022-09-11T09:58:50.162Z,4.22
2022-09-11T10:01:44.754Z,4.13
2022-09-11T10:04:17.536Z,3.55
2022-09-11T10:06:49.544Z,3.60
2022-09-11T10:09:25.939Z,4.00
2022-09-11T10:12:02.718Z,4.22
2022-09-11T10:14:53.654Z,3.83
2022-09-11T10:17:31.420Z,3.95
2022-09-11T10:20:23.084Z,4.53
2022-09-11T10:22:51.434Z,4.60
2022-09-11T10:25:26.925Z,4.20
2022-09-11T10:28:03.554Z,4.30
2022-09-11T10:30:39.218Z,3.95
2022-09-11T10:33:30.710Z,4.30
2022-09-11T10:35:59.889Z,4.28
2022-09-11T10:38:47.849Z,4.00
2022-09-11T10:41:14.675Z,4.78
2022-09-11T10:44:04.195Z,4.88
2022-09-11T10:46:41.249Z,4.47
2022-09-11T10:49:25.802Z,4.20
2022-09-11T10:52:02.678Z,3.95
2022-09-11T10:54:46.958Z,3.88
2022-09-11T10:57:42.906Z,3.88
2022-09-11T11:00:12.345Z,3.97
2022-09-11T11:02:41.108Z,4.60
2022-09-11T11:05:13.895Z,4.60
2022-09-11T11:07:53.262Z,4.88
2022-09-11T11:10:51.001Z,4.57
2022-09-11T11:13:47.829Z,4.85
2022-09-11T11:16:33.737Z,4.68
2022-09-11T11:19:00.805Z,5.07
2022-09-11T11:21:27.318Z,5.00
2022-09-11T11:24:23.270Z,4.10
2022-09-11T11:27:02.454Z,4.78
2022-09-11T11:29:47.545Z,4.60
2022-09-11T11:32:35.362Z,4.10
2022-09-11T11:35:35.908Z,5.22
2022-09-11T11:38:11.436Z,4.18
2022-09-11T11:40:46.297Z,3.80
2022-09-11T11:43:21.207Z,3.33
2022-09-11T11:46:18.372Z,3.58
2022-09-11T11:48:53.970Z,3.20
2022-09-11T11:51:28.107Z,3.50
2022-09-11T11:54:05.724Z,2.80
2022-09-11T11:57:13.425Z,3.05
2022-09-11T11:59:58.008Z,2.78
2022-09-11T12:03:07.935Z,2.42
2022-09-11T12:05:34.956Z,2.92
2022-09-11T12:08:01.962Z,2.63
2022-09-11T12:10:38.944Z,2.88
2022-09-11T12:13:18.363Z,3.08
2022-09-11T12:16:02.770Z,3.33
2022-09-11T12:18:29.536Z,3.20
2022-09-11T12:21:23.971Z,3.00
2022-09-11T12:23:50.460Z,3.13
2022-09-11T12:26:35.265Z,3.08
2022-09-11T12:29:14.609Z,3.30
2022-09-11T12:32:02.070Z,3.65
2022-09-11T12:34:43.820Z,2.78
2022-09-11T12:37:24.482Z,2.80
2022-09-11T12:39:55.053Z,2.50
2022-09-11T12:42:23.184Z,2.88
2022-09-11T12:44:49.693Z,2.75
2022-09-11T12:47:32.774Z,3.15
2022-09-11T12:50:16.449Z,2.72
2022-09-11T12:52:45.808Z,2.30
2022-09-11T12:55:40.907Z,2.33
2022-09-11T12:58:22.407Z,2.00
2022-09-11T13:01:00.179Z,2.60
2022-09-11T13:03:28.244Z,2.28
2022-09-11T13:06:00.059Z,2.00
2022-09-11T13:08:30.090Z,2.40
2022-09-11T13:11:35.108Z,2.17
2022-09-11T13:14:02.290Z,2.20
2022-09-11T13:16:34.925Z,2.00
2022-09-11T13:19:07.542Z,1.92
2022-09-11T13:21:38.025Z,1.90
2022-09-11T13:24:22.282Z,1.80
2022-09-11T13:26:55.303Z,1.88
2022-09-11T13:29:29.210Z,1.90
2022-09-11T13:31:58.414Z,1.98
2022-09-11T13:34:28.094Z,1.98
2022-09-11T13:36:57.109Z,2.00
2022-09-11T13:39:26.752Z,3.58
2022-09-11T13:42:02.726Z,1.90
2022-09-11T13:44:47.304Z,1.90
2022-09-11T13:47:21.345Z,1.63
2022-09-11T13:49:51.238Z,1.90
2022-09-11T13:52:22.023Z,1.60
2022-09-11T13:54:51.607Z,1.85
2022-09-11T13:57:21.100Z,1.58
2022-09-11T13:59:54.966Z,1.60
2022-09-11T14:02:47.126Z,1.50
2022-09-11T14:05:26.281Z,1.60
2022-09-11T14:07:58.067Z,2.97
2022-09-11T14:10:37.677Z,1.90
2022-09-11T14:13:29.213Z,1.77
2022-09-11T14:16:01.185Z,1.48
2022-09-11T14:18:33.438Z,1.65
2022-09-11T14:21:04.128Z,1.40
2022-09-11T14:23:31.410Z,1.60
2022-09-11T14:26:22.786Z,1.48
2022-09-11T14:28:55.662Z,1.60
2022-09-11T14:31:41.384Z,1.35
2022-09-11T14:34:11.510Z,1.40
2022-09-11T14:36:41.846Z,1.70
2022-09-11T14:39:23.476Z,1.20
2022-09-11T14:41:50.402Z,1.50
2022-09-11T14:44:17.533Z,1.50
2022-09-11T14:46:44.282Z,1.52
2022-09-11T14:49:12.813Z,1.30
2022-09-11T14:51:40.997Z,1.50
2022-09-11T14:54:14.771Z,1.63
2022-09-11T14:56:42.238Z,1.35
2022-09-11T14:59:08.822Z,1.35
2022-09-11T15:01:36.817Z,1.58
2022-09-11T15:04:03.933Z,1.70
2022-09-11T15:06:31.148Z,1.60
2022-09-11T15:08:58.418Z,1.60
2022-09-11T15:11:25.522Z,1.70
2022-09-11T15:14:14.315Z,1.90
2022-09-11T15:16:38.638Z,2.22
2022-09-11T15:19:05.207Z,1.80
2022-09-11T15:21:35.398Z,1.90
2022-09-11T15:24:05.374Z,1.80
2022-09-11T15:26:35.126Z,2.10
2022-09-11T15:29:01.631Z,1.50
2022-09-11T15:31:29.830Z,1.90
2022-09-11T15:33:57.157Z,1.90
2022-09-11T15:36:24.476Z,1.98
2022-09-11T15:38:54.922Z,2.00
2022-09-11T15:41:22.448Z,1.90
2022-09-11T15:43:50.538Z,2.50
2022-09-11T15:46:19.425Z,2.55
2022-09-11T15:48:46.433Z,1.92
2022-09-11T15:51:18.617Z,2.70
2022-09-11T15:53:45.641Z,2.28
2022-09-11T15:56:15.958Z,2.42
2022-09-11T15:58:45.328Z,2.50
2022-09-11T16:01:23.826Z,2.47
2022-09-11T16:03:55.027Z,2.83
2022-09-11T16:06:23.270Z,2.80
2022-09-11T16:08:49.806Z,3.58
2022-09-11T16:11:16.712Z,3.60
2022-09-11T16:13:47.530Z,3.97
2022-09-11T16:16:14.412Z,3.72
2022-09-11T16:18:42.542Z,3.70
2022-09-11T16:21:11.497Z,4.05
2022-09-11T16:23:39.216Z,3.90
2022-09-11T16:26:08.440Z,3.95
2022-09-11T16:28:36.893Z,4.47
2022-09-11T16:31:04.768Z,3.70
2022-09-11T16:33:33.149Z,4.70
2022-09-11T16:36:16.941Z,3.70
2022-09-11T16:38:44.315Z,4.03
2022-09-11T16:41:14.133Z,4.05
2022-09-11T16:43:42.937Z,4.15
2022-09-11T16:46:09.541Z,3.70
2022-09-11T16:48:39.208Z,4.43
2022-09-11T16:51:06.828Z,4.50
2022-09-11T16:53:35.665Z,4.40
2022-09-11T16:56:08.253Z,3.95
2022-09-11T16:58:35.230Z,3.30
2022-09-11T17:01:06.664Z,3.63
2022-09-11T17:03:36.172Z,3.53
2022-09-11T17:06:06.786Z,3.30
2022-09-11T17:08:33.973Z,2.80
2022-09-11T17:11:02.336Z,3.47
2022-09-11T17:13:29.181Z,3.63
2022-09-11T17:16:06.070Z,2.90
2022-09-11T17:18:33.250Z,2.97
2022-09-11T17:21:05.066Z,3.17
2022-09-11T17:23:33.109Z,2.95
2022-09-11T17:26:00.120Z,3.00
2022-09-11T17:28:26.777Z,3.03
2022-09-11T17:30:53.402Z,2.60
2022-09-11T17:33:19.876Z,3.08
2022-09-11T17:35:47.314Z,2.60
2022-09-11T17:38:13.810Z,3.17
2022-09-11T17:40:41.502Z,3.10
2022-09-11T17:43:08.076Z,3.47
2022-09-11T17:45:34.667Z,3.47
2022-09-11T17:48:01.657Z,3.33
2022-09-11T17:50:28.241Z,5.93
2022-09-11T17:52:54.877Z,5.25
2022-09-11T17:55:21.623Z,4.90
2022-09-11T17:57:52.792Z,3.60
2022-09-11T18:00:20.160Z,3.85
2022-09-11T18:02:49.551Z,4.30
2022-09-11T18:05:16.762Z,4.47
2022-09-11T18:07:43.246Z,3.90
2022-09-11T18:10:10.082Z,4.70
2022-09-11T18:12:36.606Z,3.72
2022-09-11T18:15:03.864Z,3.97
2022-09-11T18:17:30.436Z,3.95
2022-09-11T18:19:57.001Z,4.50
2022-09-11T18:22:23.582Z,4.90
2022-09-11T18:24:53.155Z,5.57
2022-09-11T18:27:19.961Z,5.90
2022-09-11T18:29:46.863Z,5.70
2022-09-11T18:32:13.456Z,4.85
2022-09-11T18:34:39.981Z,7.00
2022-09-11T18:37:07.689Z,6.07
2022-09-11T18:39:34.405Z,5.47
2022-09-11T18:42:01.489Z,5.32
2022-09-11T18:44:28.080Z,5.47
2022-09-11T18:46:55.528Z,4.97
2022-09-11T18:49:22.301Z,4.10
2022-09-11T18:51:49.024Z,4.72
2022-09-11T18:54:19.394Z,5.32
2022-09-11T18:56:45.914Z,5.70
2022-09-11T18:59:13.138Z,6.10
2022-09-11T19:01:40.771Z,6.00
2022-09-11T19:04:10.145Z,5.47
2022-09-11T19:06:40.021Z,7.28
2022-09-11T19:09:10.691Z,6.38
2022-09-11T19:11:37.435Z,6.78
2022-09-11T19:14:09.349Z,7.55
2022-09-11T19:16:36.946Z,7.25
2022-09-11T19:20:00.409Z,7.35
2022-09-11T19:22:29.030Z,6.38
2022-09-11T19:24:55.579Z,28.50
2022-09-11T19:27:22.093Z,9.23
2022-09-11T19:29:49.983Z,7.28
2022-09-11T19:32:17.720Z,6.75
2022-09-11T19:34:47.489Z,7.40
2022-09-11T19:37:15.193Z,7.38
2022-09-11T19:39:42.032Z,6.57
2022-09-11T19:42:09.301Z,7.25
2022-09-11T19:44:36.360Z,7.32
2022-09-11T19:47:03.611Z,6.68
2022-09-11T19:49:30.183Z,6.80
2022-09-11T19:51:58.202Z,7.00
2022-09-11T19:54:24.850Z,7.00
2022-09-11T19:56:51.748Z,7.45
2022-09-11T19:59:18.899Z,19.00
2022-09-11T20:01:45.733Z,8.13
2022-09-11T20:04:13.586Z,7.13
2022-09-11T20:06:40.164Z,6.70
2022-09-11T20:09:30.007Z,6.82
2022-09-11T20:11:54.061Z,7.05
2022-09-11T20:14:20.646Z,6.63
2022-09-11T20:16:47.190Z,7.60
2022-09-11T20:19:14.953Z,7.80
2022-09-11T20:21:41.880Z,7.80
2022-09-11T20:24:09.232Z,6.88
2022-09-11T20:26:35.754Z,6.63
2022-09-11T20:29:07.425Z,7.00
2022-09-11T20:31:46.027Z,6.65
2022-09-11T20:34:14.834Z,6.72
2022-09-11T20:36:41.345Z,6.90
2022-09-11T20:39:07.881Z,6.60
2022-09-11T20:41:35.871Z,6.72
2022-09-11T20:44:04.178Z,6.68
2022-09-11T20:46:30.797Z,6.20
2022-09-11T20:48:57.503Z,6.63
2022-09-11T20:51:24.493Z,6.13
2022-09-11T20:53:51.465Z,6.75
2022-09-11T20:56:20.552Z,8.02
2022-09-11T20:58:47.479Z,7.15
2022-09-11T21:01:17.525Z,7.00
2022-09-11T21:03:46.643Z,6.35
2022-09-11T21:06:13.210Z,7.30
2022-09-11T21:08:41.133Z,7.38
2022-09-11T21:11:08.635Z,8.30
2022-09-11T21:13:37.678Z,7.78
2022-09-11T21:16:12.099Z,7.30
2022-09-11T21:18:40.057Z,7.57
2022-09-11T21:21:07.332Z,8.35
2022-09-11T21:23:34.136Z,8.10
2022-09-11T21:26:00.720Z,7.97
2022-09-11T21:28:27.537Z,7.55
2022-09-11T21:30:54.154Z,7.65
2022-09-11T21:33:20.753Z,8.60
2022-09-11T21:35:54.225Z,7.68
2022-09-11T21:38:24.465Z,7.78
2022-09-11T21:40:51.937Z,7.07
2022-09-11T21:43:18.726Z,8.48
2022-09-11T21:45:45.650Z,7.00
2022-09-11T21:48:12.538Z,6.68
2022-09-11T21:50:40.139Z,7.32
2022-09-11T21:53:07.230Z,7.35
2022-09-11T21:55:44.902Z,7.30
2022-09-11T21:58:18.396Z,8.18
2022-09-11T22:00:49.991Z,10.05
2022-09-11T22:03:18.541Z,9.38
2022-09-11T22:05:48.683Z,8.35
2022-09-11T22:08:17.388Z,9.30
2022-09-11T22:10:46.647Z,7.60
2022-09-11T22:13:13.602Z,9.43
2022-09-11T22:15:48.781Z,6.82
2022-09-11T22:18:17.294Z,9.07
2022-09-11T22:20:45.511Z,10.32
2022-09-11T22:23:16.844Z,9.50
2022-09-11T22:25:45.137Z,8.75
2022-09-11T22:28:12.620Z,8.45
2022-09-11T22:30:43.905Z,8.93
2022-09-11T22:33:10.975Z,9.27
2022-09-11T22:35:37.493Z,10.07
2022-09-11T22:38:04.003Z,10.63
2022-09-11T22:40:30.811Z,9.88
2022-09-11T22:42:57.394Z,10.07
2022-09-11T22:45:23.914Z,10.43
2022-09-11T22:47:50.445Z,10.07
2022-09-11T22:50:17.418Z,11.13
2022-09-11T22:52:44.267Z,10.68
2022-09-11T22:55:11.635Z,6.97
2022-09-11T22:57:38.794Z,8.82
2022-09-11T23:00:08.333Z,7.07
2022-09-11T23:02:36.065Z,6.78
2022-09-11T23:05:22.971Z,8.30
2022-09-11T23:07:50.849Z,8.98
2022-09-11T23:10:19.818Z,8.90
2022-09-11T23:12:46.527Z,7.03
2022-09-11T23:15:13.024Z,8.98
2022-09-11T23:17:39.516Z,7.88
2022-09-11T23:20:06.519Z,6.55
2022-09-11T23:22:33.037Z,10.55
2022-09-11T23:24:59.613Z,11.13
2022-09-11T23:27:26.140Z,9.23
2022-09-11T23:29:52.643Z,7.63
2022-09-11T23:32:19.214Z,8.00
2022-09-11T23:34:45.940Z,11.52
2022-09-11T23:37:12.458Z,10.75
2022-09-11T23:39:39.026Z,9.48
2022-09-11T23:42:05.746Z,9.02
2022-09-11T23:44:32.290Z,12.27
2022-09-11T23:47:00.575Z,12.07
2022-09-11T23:49:27.141Z,12.35
2022-09-11T23:51:53.706Z,12.85
2022-09-11T23:54:20.386Z,12.68
2022-09-11T23:56:46.987Z,11.45
2022-09-11T23:59:13.533Z,12.00
